Richmond Highlands, Washington
Current Conditions -  °F | °C
As of 6:53 AM on Friday 24 Oct 2014 (Local Time) from KPAE Reporting Station
Clear Clear  
Wind Chill: 45°   Ceiling: Unl
Heat Index: 48°   Visibility: 10mi
Dew Point: 42°   Wind: 7mph
Humidity: 80%   Direction: 110°ESE
Pressure: 30.03"   Gusts: NA
Location:  47.7401°N, 122.344°W
Report Text: KPAE 241353Z 11006KT 10SM CLR 09/06 A3003 RMK AO2 SLP172 T00890056
Loading
Personal Weather Stations






























Interactive Weather Map
Tropical Storm Tracking
New forecast layout! Learn more

10-Day Weather Forecast

Advertisements
Track Severe Weather on mobile